sensor_id;sensor_type;location;lat;lon;timestamp;temperature;humidity
69009;SHT31;56065;52.472;13.380;2022-09-29T00:01:46;9.86;82.79
69009;SHT31;56065;52.472;13.380;2022-09-29T00:04:12;9.83;83.11
69009;SHT31;56065;52.472;13.380;2022-09-29T00:06:37;9.81;82.94
69009;SHT31;56065;52.472;13.380;2022-09-29T00:09:03;9.78;83.18
69009;SHT31;56065;52.472;13.380;2022-09-29T00:11:28;9.76;83.12
69009;SHT31;56065;52.472;13.380;2022-09-29T00:13:54;9.76;83.23
69009;SHT31;56065;52.472;13.380;2022-09-29T00:16:19;9.73;82.85
69009;SHT31;56065;52.472;13.380;2022-09-29T00:18:44;9.71;82.75
69009;SHT31;56065;52.472;13.380;2022-09-29T00:21:12;9.69;82.85
69009;SHT31;56065;52.472;13.380;2022-09-29T00:23:38;9.66;82.94
69009;SHT31;56065;52.472;13.380;2022-09-29T00:26:15;9.63;83.36
69009;SHT31;56065;52.472;13.380;2022-09-29T00:28:46;9.66;83.09
69009;SHT31;56065;52.472;13.380;2022-09-29T00:31:13;9.63;82.98
69009;SHT31;56065;52.472;13.380;2022-09-29T00:33:38;9.68;82.99
69009;SHT31;56065;52.472;13.380;2022-09-29T00:36:07;9.61;83.16
69009;SHT31;56065;52.472;13.380;2022-09-29T00:38:34;9.61;82.92
69009;SHT31;56065;52.472;13.380;2022-09-29T00:40:59;9.56;83.40
69009;SHT31;56065;52.472;13.380;2022-09-29T00:43:49;9.56;83.13
69009;SHT31;56065;52.472;13.380;2022-09-29T00:46:16;9.49;83.34
69009;SHT31;56065;52.472;13.380;2022-09-29T00:48:44;9.53;83.19
69009;SHT31;56065;52.472;13.380;2022-09-29T00:51:10;9.49;83.24
69009;SHT31;56065;52.472;13.380;2022-09-29T00:53:36;9.48;83.27
69009;SHT31;56065;52.472;13.380;2022-09-29T00:56:04;9.42;83.07
69009;SHT31;56065;52.472;13.380;2022-09-29T00:58:41;9.44;83.23
69009;SHT31;56065;52.472;13.380;2022-09-29T01:01:08;9.41;83.30
69009;SHT31;56065;52.472;13.380;2022-09-29T01:03:38;9.39;83.00
69009;SHT31;56065;52.472;13.380;2022-09-29T01:06:18;9.38;82.86
69009;SHT31;56065;52.472;13.380;2022-09-29T01:08:50;9.38;82.98
69009;SHT31;56065;52.472;13.380;2022-09-29T01:11:19;9.31;82.97
69009;SHT31;56065;52.472;13.380;2022-09-29T01:13:46;9.25;83.19
69009;SHT31;56065;52.472;13.380;2022-09-29T01:16:12;9.25;83.02
69009;SHT31;56065;52.472;13.380;2022-09-29T01:18:37;9.25;83.12
69009;SHT31;56065;52.472;13.380;2022-09-29T01:32:46;9.22;83.88
69009;SHT31;56065;52.472;13.380;2022-09-29T01:43:19;9.14;83.71
69009;SHT31;56065;52.472;13.380;2022-09-29T01:45:52;9.15;84.13
69009;SHT31;56065;52.472;13.380;2022-09-29T01:48:29;9.18;84.19
69009;SHT31;56065;52.472;13.380;2022-09-29T01:50:59;9.25;83.90
69009;SHT31;56065;52.472;13.380;2022-09-29T01:53:43;9.28;83.99
69009;SHT31;56065;52.472;13.380;2022-09-29T01:56:26;9.36;83.86
69009;SHT31;56065;52.472;13.380;2022-09-29T01:58:56;9.38;83.86
69009;SHT31;56065;52.472;13.380;2022-09-29T02:01:26;9.46;83.68
69009;SHT31;56065;52.472;13.380;2022-09-29T02:04:04;9.55;83.61
69009;SHT31;56065;52.472;13.380;2022-09-29T02:06:34;9.61;83.58
69009;SHT31;56065;52.472;13.380;2022-09-29T02:09:04;9.66;83.40
69009;SHT31;56065;52.472;13.380;2022-09-29T02:11:34;9.71;83.26
69009;SHT31;56065;52.472;13.380;2022-09-29T02:14:18;9.83;82.95
69009;SHT31;56065;52.472;13.380;2022-09-29T02:16:48;9.87;82.94
69009;SHT31;56065;52.472;13.380;2022-09-29T02:19:28;9.93;82.69
69009;SHT31;56065;52.472;13.380;2022-09-29T02:21:56;10.00;82.54
69009;SHT31;56065;52.472;13.380;2022-09-29T02:24:22;10.02;82.58
69009;SHT31;56065;52.472;13.380;2022-09-29T02:26:48;10.02;82.69
69009;SHT31;56065;52.472;13.380;2022-09-29T02:29:14;10.09;82.44
69009;SHT31;56065;52.472;13.380;2022-09-29T02:31:40;9.96;82.47
69009;SHT31;56065;52.472;13.380;2022-09-29T02:34:09;9.99;82.34
69009;SHT31;56065;52.472;13.380;2022-09-29T02:50:27;10.00;82.29
69009;SHT31;56065;52.472;13.380;2022-09-29T02:56:12;10.07;82.46
69009;SHT31;56065;52.472;13.380;2022-09-29T02:58:52;10.03;82.62
69009;SHT31;56065;52.472;13.380;2022-09-29T03:01:18;10.17;82.35
69009;SHT31;56065;52.472;13.380;2022-09-29T03:03:43;10.25;82.15
69009;SHT31;56065;52.472;13.380;2022-09-29T03:06:10;10.25;82.22
69009;SHT31;56065;52.472;13.380;2022-09-29T03:08:36;10.27;82.00
69009;SHT31;56065;52.472;13.380;2022-09-29T03:11:02;10.25;81.98
69009;SHT31;56065;52.472;13.380;2022-09-29T03:13:27;10.30;81.85
69009;SHT31;56065;52.472;13.380;2022-09-29T03:15:52;10.24;82.00
69009;SHT31;56065;52.472;13.380;2022-09-29T03:18:18;10.24;81.90
69009;SHT31;56065;52.472;13.380;2022-09-29T03:20:43;10.27;82.16
69009;SHT31;56065;52.472;13.380;2022-09-29T03:23:08;10.31;82.10
69009;SHT31;56065;52.472;13.380;2022-09-29T03:25:34;10.36;82.05
69009;SHT31;56065;52.472;13.380;2022-09-29T03:27:59;10.30;82.17
69009;SHT31;56065;52.472;13.380;2022-09-29T03:30:25;10.37;82.07
69009;SHT31;56065;52.472;13.380;2022-09-29T03:32:50;10.44;81.87
69009;SHT31;56065;52.472;13.380;2022-09-29T03:35:16;10.48;81.84
69009;SHT31;56065;52.472;13.380;2022-09-29T03:37:41;10.55;81.76
69009;SHT31;56065;52.472;13.380;2022-09-29T03:40:07;10.60;81.71
69009;SHT31;56065;52.472;13.380;2022-09-29T03:42:33;10.61;81.62
69009;SHT31;56065;52.472;13.380;2022-09-29T03:44:58;10.67;81.53
69009;SHT31;56065;52.472;13.380;2022-09-29T03:47:24;10.65;81.61
69009;SHT31;56065;52.472;13.380;2022-09-29T03:49:49;10.67;81.47
69009;SHT31;56065;52.472;13.380;2022-09-29T03:52:14;10.64;81.50
69009;SHT31;56065;52.472;13.380;2022-09-29T03:54:40;10.68;81.48
69009;SHT31;56065;52.472;13.380;2022-09-29T03:57:05;10.72;81.53
69009;SHT31;56065;52.472;13.380;2022-09-29T03:59:31;10.68;81.68
69009;SHT31;56065;52.472;13.380;2022-09-29T04:01:56;10.71;81.57
69009;SHT31;56065;52.472;13.380;2022-09-29T04:04:21;10.75;81.38
69009;SHT31;56065;52.472;13.380;2022-09-29T04:06:47;10.75;81.53
69009;SHT31;56065;52.472;13.380;2022-09-29T04:09:12;10.76;81.37
69009;SHT31;56065;52.472;13.380;2022-09-29T04:11:38;10.81;81.28
69009;SHT31;56065;52.472;13.380;2022-09-29T04:14:03;10.81;81.20
69009;SHT31;56065;52.472;13.380;2022-09-29T04:16:29;10.79;81.25
69009;SHT31;56065;52.472;13.380;2022-09-29T04:18:54;10.84;81.21
69009;SHT31;56065;52.472;13.380;2022-09-29T04:21:19;10.79;81.09
69009;SHT31;56065;52.472;13.380;2022-09-29T04:23:45;10.74;80.98
69009;SHT31;56065;52.472;13.380;2022-09-29T04:26:11;10.72;81.17
69009;SHT31;56065;52.472;13.380;2022-09-29T04:28:37;10.67;81.26
69009;SHT31;56065;52.472;13.380;2022-09-29T04:31:03;10.72;81.26
69009;SHT31;56065;52.472;13.380;2022-09-29T04:33:28;10.69;81.15
69009;SHT31;56065;52.472;13.380;2022-09-29T04:35:55;10.55;81.12
69009;SHT31;56065;52.472;13.380;2022-09-29T04:38:20;10.68;81.07
69009;SHT31;56065;52.472;13.380;2022-09-29T04:40:46;10.72;81.04
69009;SHT31;56065;52.472;13.380;2022-09-29T04:43:12;10.72;80.99
69009;SHT31;56065;52.472;13.380;2022-09-29T04:45:37;10.72;80.87
69009;SHT31;56065;52.472;13.380;2022-09-29T04:48:03;10.71;80.85
69009;SHT31;56065;52.472;13.380;2022-09-29T04:50:28;10.68;81.09
69009;SHT31;56065;52.472;13.380;2022-09-29T04:52:53;10.76;81.09
69009;SHT31;56065;52.472;13.380;2022-09-29T04:55:19;10.75;80.70
69009;SHT31;56065;52.472;13.380;2022-09-29T04:57:44;10.74;80.80
69009;SHT31;56065;52.472;13.380;2022-09-29T05:00:11;10.75;80.79
69009;SHT31;56065;52.472;13.380;2022-09-29T05:02:37;10.74;81.04
69009;SHT31;56065;52.472;13.380;2022-09-29T05:05:03;10.76;80.87
69009;SHT31;56065;52.472;13.380;2022-09-29T05:07:29;10.79;80.75
69009;SHT31;56065;52.472;13.380;2022-09-29T05:09:54;10.84;80.68
69009;SHT31;56065;52.472;13.380;2022-09-29T05:12:20;10.84;80.73
69009;SHT31;56065;52.472;13.380;2022-09-29T05:14:46;10.85;80.73
69009;SHT31;56065;52.472;13.380;2022-09-29T05:17:11;10.82;80.56
69009;SHT31;56065;52.472;13.380;2022-09-29T05:19:37;10.85;80.56
69009;SHT31;56065;52.472;13.380;2022-09-29T05:22:02;10.89;80.58
69009;SHT31;56065;52.472;13.380;2022-09-29T05:24:27;10.91;80.60
69009;SHT31;56065;52.472;13.380;2022-09-29T05:26:53;10.91;80.39
69009;SHT31;56065;52.472;13.380;2022-09-29T05:29:18;10.95;80.39
69009;SHT31;56065;52.472;13.380;2022-09-29T05:31:44;10.92;80.23
69009;SHT31;56065;52.472;13.380;2022-09-29T05:34:10;10.91;80.31
69009;SHT31;56065;52.472;13.380;2022-09-29T05:36:35;10.89;80.26
69009;SHT31;56065;52.472;13.380;2022-09-29T05:39:01;10.85;80.36
69009;SHT31;56065;52.472;13.380;2022-09-29T05:41:26;10.81;80.64
69009;SHT31;56065;52.472;13.380;2022-09-29T05:43:53;10.86;80.49
69009;SHT31;56065;52.472;13.380;2022-09-29T05:46:19;10.88;80.23
69009;SHT31;56065;52.472;13.380;2022-09-29T05:48:45;10.88;80.19
69009;SHT31;56065;52.472;13.380;2022-09-29T05:51:13;10.92;80.25
69009;SHT31;56065;52.472;13.380;2022-09-29T05:53:39;10.94;80.31
69009;SHT31;56065;52.472;13.380;2022-09-29T05:56:06;10.96;80.29
69009;SHT31;56065;52.472;13.380;2022-09-29T05:58:32;10.94;80.43
69009;SHT31;56065;52.472;13.380;2022-09-29T06:00:58;10.98;80.21
69009;SHT31;56065;52.472;13.380;2022-09-29T06:03:23;10.98;80.13
69009;SHT31;56065;52.472;13.380;2022-09-29T06:05:49;11.08;79.95
69009;SHT31;56065;52.472;13.380;2022-09-29T06:08:14;11.18;79.88
69009;SHT31;56065;52.472;13.380;2022-09-29T06:10:39;11.15;79.76
69009;SHT31;56065;52.472;13.380;2022-09-29T06:13:05;11.18;79.49
69009;SHT31;56065;52.472;13.380;2022-09-29T06:15:30;11.19;79.60
69009;SHT31;56065;52.472;13.380;2022-09-29T06:17:56;11.23;79.54
69009;SHT31;56065;52.472;13.380;2022-09-29T06:20:22;11.30;79.46
69009;SHT31;56065;52.472;13.380;2022-09-29T06:22:48;11.37;79.31
69009;SHT31;56065;52.472;13.380;2022-09-29T06:25:15;11.37;79.34
69009;SHT31;56065;52.472;13.380;2022-09-29T06:27:40;11.42;78.93
69009;SHT31;56065;52.472;13.380;2022-09-29T06:30:06;11.36;78.92
69009;SHT31;56065;52.472;13.380;2022-09-29T06:32:32;11.30;78.89
69009;SHT31;56065;52.472;13.380;2022-09-29T06:34:58;11.30;78.81
69009;SHT31;56065;52.472;13.380;2022-09-29T06:37:42;11.34;78.78
69009;SHT31;56065;52.472;13.380;2022-09-29T06:40:10;11.34;78.72
69009;SHT31;56065;52.472;13.380;2022-09-29T06:42:36;11.42;78.81
69009;SHT31;56065;52.472;13.380;2022-09-29T06:45:02;11.50;78.75
69009;SHT31;56065;52.472;13.380;2022-09-29T06:47:28;11.42;78.97
69009;SHT31;56065;52.472;13.380;2022-09-29T06:49:53;11.54;78.64
69009;SHT31;56065;52.472;13.380;2022-09-29T06:52:19;11.63;78.61
69009;SHT31;56065;52.472;13.380;2022-09-29T06:54:44;11.70;78.23
69009;SHT31;56065;52.472;13.380;2022-09-29T06:57:09;11.66;78.19
69009;SHT31;56065;52.472;13.380;2022-09-29T06:59:35;11.69;78.06
69009;SHT31;56065;52.472;13.380;2022-09-29T07:02:00;11.74;78.10
69009;SHT31;56065;52.472;13.380;2022-09-29T07:04:26;11.81;78.07
69009;SHT31;56065;52.472;13.380;2022-09-29T07:06:51;11.90;77.76
69009;SHT31;56065;52.472;13.380;2022-09-29T07:09:17;11.91;77.51
69009;SHT31;56065;52.472;13.380;2022-09-29T07:11:45;11.98;77.61
69009;SHT31;56065;52.472;13.380;2022-09-29T07:14:12;11.98;77.34
69009;SHT31;56065;52.472;13.380;2022-09-29T07:16:37;11.87;77.60
69009;SHT31;56065;52.472;13.380;2022-09-29T07:19:04;11.70;77.96
69009;SHT31;56065;52.472;13.380;2022-09-29T07:21:29;11.78;77.60
69009;SHT31;56065;52.472;13.380;2022-09-29T07:23:55;11.78;77.39
69009;SHT31;56065;52.472;13.380;2022-09-29T07:26:20;11.84;77.74
69009;SHT31;56065;52.472;13.380;2022-09-29T07:28:46;11.97;77.53
69009;SHT31;56065;52.472;13.380;2022-09-29T07:31:15;11.95;77.25
69009;SHT31;56065;52.472;13.380;2022-09-29T07:33:45;12.06;77.38
69009;SHT31;56065;52.472;13.380;2022-09-29T07:36:15;12.20;77.04
69009;SHT31;56065;52.472;13.380;2022-09-29T07:38:44;12.26;76.73
69009;SHT31;56065;52.472;13.380;2022-09-29T07:41:10;12.32;76.71
69009;SHT31;56065;52.472;13.380;2022-09-29T07:43:36;12.38;76.73
69009;SHT31;56065;52.472;13.380;2022-09-29T07:46:02;12.46;76.59
69009;SHT31;56065;52.472;13.380;2022-09-29T07:48:29;12.31;76.54
69009;SHT31;56065;52.472;13.380;2022-09-29T07:51:23;12.38;76.20
69009;SHT31;56065;52.472;13.380;2022-09-29T07:53:48;12.45;76.51
69009;SHT31;56065;52.472;13.380;2022-09-29T07:56:17;12.53;76.30
69009;SHT31;56065;52.472;13.380;2022-09-29T07:58:43;12.66;76.01
69009;SHT31;56065;52.472;13.380;2022-09-29T08:01:10;12.45;75.72
69009;SHT31;56065;52.472;13.380;2022-09-29T08:03:38;12.73;75.99
69009;SHT31;56065;52.472;13.380;2022-09-29T08:06:05;12.86;75.81
69009;SHT31;56065;52.472;13.380;2022-09-29T08:08:30;12.99;75.42
69009;SHT31;56065;52.472;13.380;2022-09-29T08:11:10;13.00;75.44
69009;SHT31;56065;52.472;13.380;2022-09-29T08:13:37;13.18;75.10
69009;SHT31;56065;52.472;13.380;2022-09-29T08:16:04;13.20;74.80
69009;SHT31;56065;52.472;13.380;2022-09-29T08:18:30;13.34;74.72
69009;SHT31;56065;52.472;13.380;2022-09-29T08:20:56;13.43;74.78
69009;SHT31;56065;52.472;13.380;2022-09-29T08:23:22;13.53;74.58
69009;SHT31;56065;52.472;13.380;2022-09-29T08:25:49;13.76;74.21
69009;SHT31;56065;52.472;13.380;2022-09-29T08:28:15;13.82;73.61
69009;SHT31;56065;52.472;13.380;2022-09-29T08:30:40;14.10;73.63
69009;SHT31;56065;52.472;13.380;2022-09-29T08:33:06;14.23;72.99
69009;SHT31;56065;52.472;13.380;2022-09-29T08:35:39;14.57;72.93
69009;SHT31;56065;52.472;13.380;2022-09-29T08:38:05;14.85;72.63
69009;SHT31;56065;52.472;13.380;2022-09-29T08:40:30;15.14;71.73
69009;SHT31;56065;52.472;13.380;2022-09-29T08:43:00;15.40;70.94
69009;SHT31;56065;52.472;13.380;2022-09-29T08:45:35;15.69;70.59
69009;SHT31;56065;52.472;13.380;2022-09-29T08:48:07;16.08;70.02
69009;SHT31;56065;52.472;13.380;2022-09-29T08:50:43;16.22;69.26
69009;SHT31;56065;52.472;13.380;2022-09-29T08:53:13;16.36;68.61
69009;SHT31;56065;52.472;13.380;2022-09-29T08:55:44;16.52;67.68
69009;SHT31;56065;52.472;13.380;2022-09-29T08:58:13;16.77;67.41
69009;SHT31;56065;52.472;13.380;2022-09-29T09:16:58;17.77;63.98
69009;SHT31;56065;52.472;13.380;2022-09-29T09:19:35;18.10;62.43
69009;SHT31;56065;52.472;13.380;2022-09-29T09:22:24;18.57;62.68
69009;SHT31;56065;52.472;13.380;2022-09-29T09:24:59;18.61;61.55
69009;SHT31;56065;52.472;13.380;2022-09-29T09:27:39;18.43;60.34
69009;SHT31;56065;52.472;13.380;2022-09-29T09:30:15;19.07;60.60
69009;SHT31;56065;52.472;13.380;2022-09-29T09:32:52;19.03;59.39
69009;SHT31;56065;52.472;13.380;2022-09-29T09:37:57;19.32;59.46
69009;SHT31;56065;52.472;13.380;2022-09-29T09:40:26;19.63;59.58
69009;SHT31;56065;52.472;13.380;2022-09-29T09:43:02;20.14;58.11
69009;SHT31;56065;52.472;13.380;2022-09-29T09:45:48;19.93;56.43
69009;SHT31;56065;52.472;13.380;2022-09-29T09:48:19;21.50;56.67
69009;SHT31;56065;52.472;13.380;2022-09-29T09:50:46;23.02;53.17
69009;SHT31;56065;52.472;13.380;2022-09-29T09:53:36;24.26;49.41
69009;SHT31;56065;52.472;13.380;2022-09-29T09:59:22;24.39;46.91
69009;SHT31;56065;52.472;13.380;2022-09-29T10:01:51;25.86;47.34
69009;SHT31;56065;52.472;13.380;2022-09-29T10:04:16;26.61;45.30
69009;SHT31;56065;52.472;13.380;2022-09-29T10:06:42;24.63;43.83
69009;SHT31;56065;52.472;13.380;2022-09-29T10:09:12;24.63;45.38
69009;SHT31;56065;52.472;13.380;2022-09-29T10:11:40;24.46;46.20
69009;SHT31;56065;52.472;13.380;2022-09-29T10:14:21;26.10;43.65
69009;SHT31;56065;52.472;13.380;2022-09-29T10:16:53;26.62;44.32
69009;SHT31;56065;52.472;13.380;2022-09-29T10:19:21;26.37;44.35
69009;SHT31;56065;52.472;13.380;2022-09-29T10:21:47;26.31;44.88
69009;SHT31;56065;52.472;13.380;2022-09-29T10:24:28;24.85;45.18
69009;SHT31;56065;52.472;13.380;2022-09-29T10:26:57;24.90;45.34
69009;SHT31;56065;52.472;13.380;2022-09-29T10:29:27;24.05;47.00
69009;SHT31;56065;52.472;13.380;2022-09-29T10:31:59;21.74;47.86
69009;SHT31;56065;52.472;13.380;2022-09-29T10:34:27;21.88;49.49
69009;SHT31;56065;52.472;13.380;2022-09-29T10:36:58;21.54;49.81
69009;SHT31;56065;52.472;13.380;2022-09-29T10:41:55;20.40;51.89
69009;SHT31;56065;52.472;13.380;2022-09-29T10:44:21;20.78;51.69
69009;SHT31;56065;52.472;13.380;2022-09-29T10:46:53;20.55;51.91
69009;SHT31;56065;52.472;13.380;2022-09-29T10:49:21;20.27;51.34
69009;SHT31;56065;52.472;13.380;2022-09-29T10:52:01;20.38;51.89
69009;SHT31;56065;52.472;13.380;2022-09-29T10:54:29;19.82;53.16
69009;SHT31;56065;52.472;13.380;2022-09-29T10:56:56;20.28;52.96
69009;SHT31;56065;52.472;13.380;2022-09-29T10:59:23;20.28;53.06
69009;SHT31;56065;52.472;13.380;2022-09-29T11:01:55;20.16;53.08
69009;SHT31;56065;52.472;13.380;2022-09-29T11:04:28;20.34;52.25
69009;SHT31;56065;52.472;13.380;2022-09-29T11:06:55;19.65;52.58
69009;SHT31;56065;52.472;13.380;2022-09-29T11:19:43;19.36;54.67
69009;SHT31;56065;52.472;13.380;2022-09-29T11:22:31;19.22;55.62
69009;SHT31;56065;52.472;13.380;2022-09-29T11:30:53;19.39;53.73
69009;SHT31;56065;52.472;13.380;2022-09-29T11:33:34;19.21;54.00
69009;SHT31;56065;52.472;13.380;2022-09-29T11:42:02;19.11;54.59
69009;SHT31;56065;52.472;13.380;2022-09-29T11:47:12;18.71;56.04
69009;SHT31;56065;52.472;13.380;2022-09-29T12:00:24;17.91;56.50
69009;SHT31;56065;52.472;13.380;2022-09-29T12:11:48;17.89;55.48
69009;SHT31;56065;52.472;13.380;2022-09-29T12:17:01;19.24;55.50
69009;SHT31;56065;52.472;13.380;2022-09-29T12:19:32;20.45;53.05
69009;SHT31;56065;52.472;13.380;2022-09-29T12:22:02;22.18;49.61
69009;SHT31;56065;52.472;13.380;2022-09-29T12:24:43;23.65;47.73
69009;SHT31;56065;52.472;13.380;2022-09-29T12:27:18;23.88;45.70
69009;SHT31;56065;52.472;13.380;2022-09-29T12:30:03;23.86;44.83
69009;SHT31;56065;52.472;13.380;2022-09-29T12:32:33;22.83;47.23
69009;SHT31;56065;52.472;13.380;2022-09-29T12:35:10;22.19;47.40
69009;SHT31;56065;52.472;13.380;2022-09-29T12:37:46;21.25;49.59
69009;SHT31;56065;52.472;13.380;2022-09-29T12:40:23;20.72;49.76
69009;SHT31;56065;52.472;13.380;2022-09-29T12:43:18;20.31;50.38
69009;SHT31;56065;52.472;13.380;2022-09-29T12:46:04;20.07;50.44
69009;SHT31;56065;52.472;13.380;2022-09-29T12:51:00;19.61;51.38
69009;SHT31;56065;52.472;13.380;2022-09-29T12:53:50;19.63;50.76
69009;SHT31;56065;52.472;13.380;2022-09-29T12:56:32;19.51;51.28
69009;SHT31;56065;52.472;13.380;2022-09-29T13:13:12;19.54;52.30
69009;SHT31;56065;52.472;13.380;2022-09-29T13:18:50;19.65;51.32
69009;SHT31;56065;52.472;13.380;2022-09-29T13:24:05;18.91;51.98
69009;SHT31;56065;52.472;13.380;2022-09-29T13:27:09;18.98;52.74
69009;SHT31;56065;52.472;13.380;2022-09-29T13:29:44;19.66;52.62
69009;SHT31;56065;52.472;13.380;2022-09-29T13:32:12;20.03;50.45
69009;SHT31;56065;52.472;13.380;2022-09-29T13:34:38;19.96;49.99
69009;SHT31;56065;52.472;13.380;2022-09-29T13:37:17;20.10;49.46
69009;SHT31;56065;52.472;13.380;2022-09-29T13:39:56;19.76;48.89
69009;SHT31;56065;52.472;13.380;2022-09-29T13:47:57;19.93;50.72
69009;SHT31;56065;52.472;13.380;2022-09-29T13:50:50;19.93;50.27
69009;SHT31;56065;52.472;13.380;2022-09-29T13:58:35;19.52;50.16
69009;SHT31;56065;52.472;13.380;2022-09-29T14:01:04;19.58;49.05
69009;SHT31;56065;52.472;13.380;2022-09-29T14:03:43;18.88;47.89
69009;SHT31;56065;52.472;13.380;2022-09-29T14:06:23;19.17;48.85
69009;SHT31;56065;52.472;13.380;2022-09-29T14:08:57;19.39;47.09
69009;SHT31;56065;52.472;13.380;2022-09-29T14:11:36;19.85;47.76
69009;SHT31;56065;52.472;13.380;2022-09-29T14:14:08;19.42;46.91
69009;SHT31;56065;52.472;13.380;2022-09-29T14:19:30;18.95;46.34
69009;SHT31;56065;52.472;13.380;2022-09-29T14:22:00;18.66;46.83
69009;SHT31;56065;52.472;13.380;2022-09-29T14:29:54;18.68;47.81
69009;SHT31;56065;52.472;13.380;2022-09-29T14:35:16;18.97;49.48
69009;SHT31;56065;52.472;13.380;2022-09-29T14:37:44;18.95;49.06
69009;SHT31;56065;52.472;13.380;2022-09-29T14:40:15;18.98;49.43
69009;SHT31;56065;52.472;13.380;2022-09-29T14:43:10;18.98;49.96
69009;SHT31;56065;52.472;13.380;2022-09-29T14:49:05;18.64;49.25
69009;SHT31;56065;52.472;13.380;2022-09-29T14:51:56;18.32;50.21
69009;SHT31;56065;52.472;13.380;2022-09-29T14:54:45;18.04;50.51
69009;SHT31;56065;52.472;13.380;2022-09-29T14:57:42;17.71;51.02
69009;SHT31;56065;52.472;13.380;2022-09-29T15:00:15;17.78;52.08
69009;SHT31;56065;52.472;13.380;2022-09-29T15:02:45;17.71;51.52
69009;SHT31;56065;52.472;13.380;2022-09-29T15:05:32;17.64;52.40
69009;SHT31;56065;52.472;13.380;2022-09-29T15:08:00;17.70;52.34
69009;SHT31;56065;52.472;13.380;2022-09-29T15:10:37;17.65;52.25
69009;SHT31;56065;52.472;13.380;2022-09-29T15:13:27;17.63;52.77
69009;SHT31;56065;52.472;13.380;2022-09-29T15:16:03;17.47;53.39
69009;SHT31;56065;52.472;13.380;2022-09-29T15:21:14;17.54;53.11
69009;SHT31;56065;52.472;13.380;2022-09-29T15:26:53;17.54;53.78
69009;SHT31;56065;52.472;13.380;2022-09-29T15:29:19;17.43;53.84
69009;SHT31;56065;52.472;13.380;2022-09-29T15:31:46;17.27;53.52
69009;SHT31;56065;52.472;13.380;2022-09-29T15:34:19;17.30;53.87
69009;SHT31;56065;52.472;13.380;2022-09-29T15:36:50;17.34;53.44
69009;SHT31;56065;52.472;13.380;2022-09-29T15:42:15;17.27;54.61
69009;SHT31;56065;52.472;13.380;2022-09-29T15:45:07;17.26;54.23
69009;SHT31;56065;52.472;13.380;2022-09-29T15:47:37;17.27;54.28
69009;SHT31;56065;52.472;13.380;2022-09-29T15:50:18;17.15;53.92
69009;SHT31;56065;52.472;13.380;2022-09-29T15:52:44;17.02;54.69
69009;SHT31;56065;52.472;13.380;2022-09-29T15:55:13;17.03;54.18
69009;SHT31;56065;52.472;13.380;2022-09-29T15:57:45;16.89;54.65
69009;SHT31;56065;52.472;13.380;2022-09-29T16:05:29;16.22;55.53
69009;SHT31;56065;52.472;13.380;2022-09-29T16:08:02;16.03;56.00
69009;SHT31;56065;52.472;13.380;2022-09-29T16:10:46;15.82;56.74
69009;SHT31;56065;52.472;13.380;2022-09-29T16:13:18;15.65;57.80
69009;SHT31;56065;52.472;13.380;2022-09-29T16:15:46;15.45;57.82
69009;SHT31;56065;52.472;13.380;2022-09-29T16:18:22;15.38;58.73
69009;SHT31;56065;52.472;13.380;2022-09-29T16:20:49;15.29;58.16
69009;SHT31;56065;52.472;13.380;2022-09-29T16:28:37;15.02;59.83
69009;SHT31;56065;52.472;13.380;2022-09-29T16:31:21;14.91;60.28
69009;SHT31;56065;52.472;13.380;2022-09-29T16:33:56;14.85;60.59
69009;SHT31;56065;52.472;13.380;2022-09-29T16:36:25;14.74;61.43
69009;SHT31;56065;52.472;13.380;2022-09-29T16:38:51;14.63;61.62
69009;SHT31;56065;52.472;13.380;2022-09-29T16:41:24;14.51;62.01
69009;SHT31;56065;52.472;13.380;2022-09-29T16:44:05;14.44;62.29
69009;SHT31;56065;52.472;13.380;2022-09-29T16:47:02;14.29;62.42
69009;SHT31;56065;52.472;13.380;2022-09-29T16:49:32;14.27;63.00
69009;SHT31;56065;52.472;13.380;2022-09-29T16:52:11;14.15;63.41
69009;SHT31;56065;52.472;13.380;2022-09-29T16:54:42;14.05;64.03
69009;SHT31;56065;52.472;13.380;2022-09-29T16:59:34;13.90;64.93
69009;SHT31;56065;52.472;13.380;2022-09-29T17:02:00;13.85;64.79
69009;SHT31;56065;52.472;13.380;2022-09-29T17:04:25;13.78;65.28
69009;SHT31;56065;52.472;13.380;2022-09-29T17:06:51;13.68;66.23
69009;SHT31;56065;52.472;13.380;2022-09-29T17:09:23;13.66;66.41
69009;SHT31;56065;52.472;13.380;2022-09-29T17:11:49;13.64;66.42
69009;SHT31;56065;52.472;13.380;2022-09-29T17:14:15;13.55;66.50
69009;SHT31;56065;52.472;13.380;2022-09-29T17:16:42;13.51;67.08
69009;SHT31;56065;52.472;13.380;2022-09-29T17:19:09;13.48;67.36
69009;SHT31;56065;52.472;13.380;2022-09-29T17:21:35;13.44;67.90
69009;SHT31;56065;52.472;13.380;2022-09-29T17:24:01;13.37;68.05
69009;SHT31;56065;52.472;13.380;2022-09-29T17:26:44;13.31;68.39
69009;SHT31;56065;52.472;13.380;2022-09-29T17:29:29;13.27;68.69
69009;SHT31;56065;52.472;13.380;2022-09-29T17:31:54;13.20;68.93
69009;SHT31;56065;52.472;13.380;2022-09-29T17:34:20;13.13;69.28
69009;SHT31;56065;52.472;13.380;2022-09-29T17:36:53;13.07;69.52
69009;SHT31;56065;52.472;13.380;2022-09-29T17:39:19;13.06;70.02
69009;SHT31;56065;52.472;13.380;2022-09-29T17:41:44;13.00;70.05
69009;SHT31;56065;52.472;13.380;2022-09-29T17:44:11;12.94;70.43
69009;SHT31;56065;52.472;13.380;2022-09-29T17:46:37;12.90;70.59
69009;SHT31;56065;52.472;13.380;2022-09-29T17:49:03;12.84;71.18
69009;SHT31;56065;52.472;13.380;2022-09-29T17:51:28;12.76;70.87
69009;SHT31;56065;52.472;13.380;2022-09-29T17:53:54;12.70;71.57
69009;SHT31;56065;52.472;13.380;2022-09-29T17:56:24;12.66;71.46
69009;SHT31;56065;52.472;13.380;2022-09-29T17:58:57;12.55;71.87
69009;SHT31;56065;52.472;13.380;2022-09-29T18:01:27;12.50;71.98
69009;SHT31;56065;52.472;13.380;2022-09-29T18:03:52;12.43;72.02
69009;SHT31;56065;52.472;13.380;2022-09-29T18:06:20;12.43;72.20
69009;SHT31;56065;52.472;13.380;2022-09-29T18:08:49;12.38;72.02
69009;SHT31;56065;52.472;13.380;2022-09-29T18:11:16;12.36;71.62
69009;SHT31;56065;52.472;13.380;2022-09-29T18:13:42;12.32;71.93
69009;SHT31;56065;52.472;13.380;2022-09-29T18:16:11;12.28;72.59
69009;SHT31;56065;52.472;13.380;2022-09-29T18:18:37;12.25;73.25
69009;SHT31;56065;52.472;13.380;2022-09-29T18:21:03;12.25;72.66
69009;SHT31;56065;52.472;13.380;2022-09-29T18:23:30;12.24;73.02
69009;SHT31;56065;52.472;13.380;2022-09-29T18:25:56;12.24;72.44
69009;SHT31;56065;52.472;13.380;2022-09-29T18:28:21;12.20;72.89
69009;SHT31;56065;52.472;13.380;2022-09-29T18:31:01;12.14;72.96
69009;SHT31;56065;52.472;13.380;2022-09-29T18:33:29;12.11;73.04